createdAt,value
2018-09-07T00:00:11.191Z,16.25
2018-09-07T00:01:19.838Z,16.22
2018-09-07T00:02:28.487Z,16.24
2018-09-07T00:03:37.134Z,16.28
2018-09-07T00:04:46.142Z,16.32
2018-09-07T00:05:54.688Z,16.4
2018-09-07T00:07:03.335Z,16.29
2018-09-07T00:08:11.974Z,16.39
2018-09-07T00:09:20.897Z,16.31
2018-09-07T00:10:29.537Z,16.31
2018-09-07T00:11:38.187Z,16.4
2018-09-07T00:12:46.826Z,16.41
2018-09-07T00:13:55.484Z,16.41
2018-09-07T00:15:04.118Z,16.34
2018-09-07T00:16:12.765Z,16.4
2018-09-07T00:17:21.408Z,16.34
2018-09-07T00:18:30.063Z,16.39
2018-09-07T00:19:38.706Z,16.46
2018-09-07T00:20:47.612Z,16.39
2018-09-07T00:21:56.261Z,16.4
2018-09-07T00:23:04.903Z,16.41
2018-09-07T00:24:13.819Z,16.41
2018-09-07T00:25:22.455Z,16.44
2018-09-07T00:26:31.105Z,16.44
2018-09-07T00:27:39.741Z,16.41
2018-09-07T00:28:48.399Z,16.41
2018-09-07T00:29:57.299Z,16.37
2018-09-07T00:31:06.219Z,16.39
2018-09-07T00:32:14.856Z,16.43
2018-09-07T00:33:23.519Z,16.43
2018-09-07T00:34:32.157Z,16.43
2018-09-07T00:35:40.805Z,16.44
2018-09-07T00:36:49.442Z,16.5
2018-09-07T00:37:58.091Z,16.44
2018-09-07T00:39:06.742Z,16.44
2018-09-07T00:40:15.395Z,16.43
2018-09-07T00:41:24.042Z,16.41
2018-09-07T00:42:32.677Z,16.43
2018-09-07T00:43:41.330Z,16.44
2018-09-07T00:44:49.971Z,16.41
2018-09-07T00:45:58.626Z,16.37
2018-09-07T00:47:07.261Z,16.37
2018-09-07T00:48:16.177Z,16.41
2018-09-07T00:49:24.816Z,16.46
2018-09-07T00:50:33.470Z,16.4
2018-09-07T00:51:42.107Z,16.31
2018-09-07T00:52:50.757Z,16.34
2018-09-07T00:53:59.397Z,16.28
2018-09-07T00:55:08.360Z,16.29
2018-09-07T00:56:17.004Z,16.24
2018-09-07T00:57:25.648Z,16.12
2018-09-07T00:58:34.291Z,16.13
2018-09-07T00:59:42.934Z,16.13
2018-09-07T01:00:51.590Z,16.05
2018-09-07T01:02:00.497Z,16.09
2018-09-07T01:03:09.147Z,16.09
2018-09-07T01:04:17.786Z,16.03
2018-09-07T01:05:26.703Z,15.99
2018-09-07T01:06:35.338Z,16.05
2018-09-07T01:07:44.249Z,15.9
2018-09-07T01:08:52.886Z,15.96
2018-09-07T01:10:01.541Z,15.96
2018-09-07T01:11:10.183Z,15.9
2018-09-07T01:12:18.830Z,15.9
2018-09-07T01:13:27.497Z,15.96
2018-09-07T01:14:36.113Z,15.9
2018-09-07T01:15:44.762Z,15.88
2018-09-07T01:16:53.419Z,15.9
2018-09-07T01:18:02.067Z,15.91
2018-09-07T01:19:10.968Z,15.87
2018-09-07T01:20:19.618Z,15.85
2018-09-07T01:21:28.536Z,15.96
2018-09-07T01:22:37.185Z,15.84
2018-09-07T01:23:46.085Z,15.87
2018-09-07T01:24:54.735Z,15.87
2018-09-07T01:26:03.378Z,15.9
2018-09-07T01:27:12.030Z,15.91
2018-09-07T01:28:20.674Z,15.94
2018-09-07T01:29:29.318Z,16
2018-09-07T01:30:38.226Z,15.9
2018-09-07T01:31:46.883Z,15.99
2018-09-07T01:32:55.526Z,15.9
2018-09-07T01:34:04.166Z,15.91
2018-09-07T01:35:12.810Z,15.99
2018-09-07T01:36:21.459Z,15.99
2018-09-07T01:37:30.121Z,15.98
2018-09-07T01:38:38.758Z,15.99
2018-09-07T01:39:47.407Z,15.98
2018-09-07T01:40:56.046Z,15.96
2018-09-07T01:42:04.701Z,15.94
2018-09-07T01:43:13.343Z,15.88
2018-09-07T01:44:22.263Z,15.92
2018-09-07T01:45:31.159Z,15.94
2018-09-07T01:46:39.816Z,15.98
2018-09-07T01:47:48.457Z,15.91
2018-09-07T01:48:57.107Z,15.9
2018-09-07T01:50:06.003Z,15.9
2018-09-07T01:51:14.651Z,15.92
2018-09-07T01:52:23.300Z,15.84
2018-09-07T01:53:31.944Z,15.87
2018-09-07T01:54:40.593Z,15.9
2018-09-07T01:55:49.232Z,15.87
2018-09-07T01:56:57.877Z,15.84
2018-09-07T01:58:06.523Z,15.85
2018-09-07T01:59:15.435Z,15.81
2018-09-07T02:00:24.076Z,15.81
2018-09-07T02:01:32.983Z,15.84
2018-09-07T02:02:41.633Z,15.9
2018-09-07T02:03:50.278Z,15.9
2018-09-07T02:04:58.919Z,15.87
2018-09-07T02:06:07.827Z,15.84
2018-09-07T02:07:16.471Z,15.84
2018-09-07T02:08:25.122Z,15.87
2018-09-07T02:09:34.296Z,15.8
2018-09-07T02:10:43.203Z,15.73
2018-09-07T02:11:51.845Z,15.72
2018-09-07T02:13:00.488Z,15.81
2018-09-07T02:14:09.138Z,15.75
2018-09-07T02:15:17.782Z,15.73
2018-09-07T02:16:26.696Z,15.75
2018-09-07T02:17:35.596Z,15.78
2018-09-07T02:18:44.464Z,15.75
2018-09-07T02:19:54.270Z,15.69
2018-09-07T02:21:02.997Z,15.76
2018-09-07T02:22:12.305Z,15.76
2018-09-07T02:23:20.954Z,15.78
2018-09-07T02:24:29.594Z,15.84
2018-09-07T02:25:38.650Z,15.78
2018-09-07T02:26:47.288Z,15.81
2018-09-07T02:27:55.935Z,15.84
2018-09-07T02:29:04.581Z,15.8
2018-09-07T02:30:13.272Z,15.83
2018-09-07T02:31:22.451Z,15.87
2018-09-07T02:32:31.096Z,15.8
2018-09-07T02:33:39.736Z,15.88
2018-09-07T02:34:48.385Z,15.85
2018-09-07T02:35:57.566Z,15.84
2018-09-07T02:37:06.207Z,15.85
2018-09-07T02:38:14.852Z,15.87
2018-09-07T02:39:23.496Z,15.84
2018-09-07T02:40:32.148Z,15.84
2018-09-07T02:41:40.790Z,15.81
2018-09-07T02:42:49.436Z,15.9
2018-09-07T02:43:58.082Z,15.84
2018-09-07T02:45:06.723Z,15.84
2018-09-07T02:46:15.367Z,15.84
2018-09-07T02:47:24.010Z,15.87
2018-09-07T02:48:32.919Z,15.91
2018-09-07T02:49:41.561Z,15.84
2018-09-07T02:50:50.216Z,15.9
2018-09-07T02:51:59.122Z,15.84
2018-09-07T02:53:07.764Z,15.87
2018-09-07T02:54:16.415Z,15.87
2018-09-07T02:55:25.068Z,15.88
2018-09-07T02:56:33.975Z,15.87
2018-09-07T02:57:42.618Z,15.88
2018-09-07T02:58:51.270Z,15.87
2018-09-07T03:00:00.167Z,15.8
2018-09-07T03:01:08.816Z,15.73
2018-09-07T03:02:17.465Z,15.87
2018-09-07T03:03:26.116Z,15.78
2018-09-07T03:04:35.025Z,15.76
2018-09-07T03:05:43.669Z,15.81
2018-09-07T03:06:52.310Z,15.84
2018-09-07T03:08:00.955Z,15.78
2018-09-07T03:09:09.871Z,15.83
2018-09-07T03:10:18.785Z,15.75
2018-09-07T03:11:27.435Z,15.76
2018-09-07T03:12:36.076Z,15.76
2018-09-07T03:13:44.727Z,15.83
2018-09-07T03:14:53.372Z,15.81
2018-09-07T03:16:02.019Z,15.76
2018-09-07T03:17:10.659Z,15.78
2018-09-07T03:18:19.309Z,15.8
2018-09-07T03:19:28.210Z,15.78
2018-09-07T03:20:36.863Z,15.73
2018-09-07T03:21:45.503Z,15.73
2018-09-07T03:22:54.161Z,15.75
2018-09-07T03:24:02.794Z,15.72
2018-09-07T03:25:11.442Z,15.78
2018-09-07T03:26:20.089Z,15.8
2018-09-07T03:27:28.727Z,15.76
2018-09-07T03:28:37.637Z,15.76
2018-09-07T03:29:46.280Z,15.8
2018-09-07T03:30:55.213Z,15.78
2018-09-07T03:32:03.858Z,15.85
2018-09-07T03:33:12.511Z,15.91
2018-09-07T03:34:21.156Z,15.88
2018-09-07T03:35:29.809Z,15.88
2018-09-07T03:36:38.448Z,15.87
2018-09-07T03:37:47.102Z,15.88
2018-09-07T03:38:56.008Z,15.92
2018-09-07T03:40:04.658Z,15.88
2018-09-07T03:41:13.575Z,15.88
2018-09-07T03:42:22.583Z,15.9
2018-09-07T03:43:31.204Z,15.9
2018-09-07T03:44:39.850Z,15.98
2018-09-07T03:45:48.501Z,15.87
2018-09-07T03:46:57.151Z,15.92
2018-09-07T03:48:05.788Z,15.87
2018-09-07T03:49:14.695Z,15.88
2018-09-07T03:50:23.352Z,15.88
2018-09-07T03:51:31.996Z,15.84
2018-09-07T03:52:40.911Z,15.91
2018-09-07T03:53:49.548Z,15.87
2018-09-07T03:54:58.736Z,15.85
2018-09-07T03:56:07.380Z,15.88
2018-09-07T03:57:16.030Z,15.85
2018-09-07T03:58:25.173Z,15.91
2018-09-07T03:59:34.326Z,15.88
2018-09-07T04:00:43.243Z,15.87
2018-09-07T04:01:52.148Z,15.83
2018-09-07T04:03:00.799Z,15.83
2018-09-07T04:04:09.432Z,15.78
2018-09-07T04:05:18.085Z,15.76
2018-09-07T04:06:26.732Z,15.75
2018-09-07T04:07:35.380Z,15.73
2018-09-07T04:08:44.021Z,15.76
2018-09-07T04:09:52.670Z,15.76
2018-09-07T04:11:01.313Z,15.72
2018-09-07T04:12:10.267Z,15.8
2018-09-07T04:13:19.196Z,15.72
2018-09-07T04:14:28.099Z,15.66
2018-09-07T04:15:36.751Z,15.62
2018-09-07T04:16:45.670Z,15.63
2018-09-07T04:17:54.315Z,15.65
2018-09-07T04:19:02.953Z,15.65
2018-09-07T04:20:11.604Z,15.62
2018-09-07T04:21:20.513Z,15.52
2018-09-07T04:22:29.165Z,15.51
2018-09-07T04:23:38.122Z,15.65
2018-09-07T04:24:46.742Z,15.52
2018-09-07T04:25:55.907Z,15.57
2018-09-07T04:27:04.823Z,15.54
2018-09-07T04:28:13.822Z,15.47
2018-09-07T04:29:22.418Z,15.55
2018-09-07T04:30:31.056Z,15.54
2018-09-07T04:31:39.708Z,15.45
2018-09-07T04:32:48.355Z,15.45
2018-09-07T04:33:56.997Z,15.39
2018-09-07T04:35:05.632Z,15.41
2018-09-07T04:36:14.542Z,15.32
2018-09-07T04:37:23.450Z,15.32
2018-09-07T04:38:32.100Z,15.25
2018-09-07T04:39:40.744Z,15.27
2018-09-07T04:40:49.381Z,15.19
2018-09-07T04:41:58.036Z,15.19
2018-09-07T04:43:06.942Z,15.22
2018-09-07T04:44:15.596Z,15.18
2018-09-07T04:45:24.230Z,15.22
2018-09-07T04:46:32.890Z,15.19
2018-09-07T04:47:41.794Z,15.14
2018-09-07T04:48:50.445Z,15.17
2018-09-07T04:49:59.084Z,15.1
2018-09-07T04:51:07.990Z,15.23
2018-09-07T04:52:16.633Z,15.18
2018-09-07T04:53:25.282Z,15.18
2018-09-07T04:54:33.924Z,15.22
2018-09-07T04:55:42.568Z,15.27
2018-09-07T04:56:51.208Z,15.27
2018-09-07T04:57:59.860Z,15.33
2018-09-07T04:59:08.511Z,15.32
2018-09-07T05:00:17.158Z,15.35
2018-09-07T05:01:26.068Z,15.35
2018-09-07T05:02:34.710Z,15.32
2018-09-07T05:03:43.625Z,15.26
2018-09-07T05:04:52.275Z,15.18
2018-09-07T05:06:00.927Z,15.22
2018-09-07T05:07:09.566Z,15.25
2018-09-07T05:08:18.217Z,15.22
2018-09-07T05:09:27.158Z,15.18
2018-09-07T05:10:35.769Z,15.18
2018-09-07T05:11:44.670Z,15.15
2018-09-07T05:12:53.315Z,15.17
2018-09-07T05:14:01.954Z,15.12
2018-09-07T05:15:10.605Z,15.14
2018-09-07T05:16:19.251Z,15.17
2018-09-07T05:17:27.895Z,15.14
2018-09-07T05:18:36.542Z,15.15
2018-09-07T05:19:45.182Z,15.18
2018-09-07T05:20:54.090Z,15.17
2018-09-07T05:22:03.107Z,15.14
2018-09-07T05:23:12.377Z,15.15
2018-09-07T05:24:21.024Z,15.08
2018-09-07T05:25:29.672Z,15.08
2018-09-07T05:26:38.310Z,15.15
2018-09-07T05:27:46.956Z,15.14
2018-09-07T05:28:57.351Z,15.14
2018-09-07T05:30:06.009Z,15.19
2018-09-07T05:31:14.640Z,15.15
2018-09-07T05:32:23.284Z,15.14
2018-09-07T05:33:31.931Z,15.14
2018-09-07T05:34:40.580Z,15.12
2018-09-07T05:35:49.490Z,15.11
2018-09-07T05:36:58.135Z,15.14
2018-09-07T05:38:07.306Z,15.17
2018-09-07T05:39:16.017Z,15.12
2018-09-07T05:40:24.594Z,15.14
2018-09-07T05:41:33.237Z,15.23
2018-09-07T05:42:41.885Z,15.18
2018-09-07T05:43:50.523Z,15.19
2018-09-07T05:44:59.169Z,15.26
2018-09-07T05:46:07.811Z,15.23
2018-09-07T05:47:16.727Z,15.25
2018-09-07T05:48:25.362Z,15.27
2018-09-07T05:49:34.011Z,15.25
2018-09-07T05:50:42.659Z,15.26
2018-09-07T05:51:51.307Z,15.26
2018-09-07T05:52:59.953Z,15.23
2018-09-07T05:54:08.588Z,15.27
2018-09-07T05:55:17.241Z,15.29
2018-09-07T05:56:25.880Z,15.32
2018-09-07T05:57:34.531Z,15.27
2018-09-07T05:58:43.166Z,15.23
2018-09-07T05:59:52.085Z,15.39
2018-09-07T06:01:00.725Z,15.41
2018-09-07T06:02:09.380Z,15.32
2018-09-07T06:03:18.014Z,15.44
2018-09-07T06:04:26.660Z,15.41
2018-09-07T06:05:35.317Z,15.45
2018-09-07T06:06:43.966Z,15.44
2018-09-07T06:07:52.609Z,15.52
2018-09-07T06:09:01.519Z,15.48
2018-09-07T06:10:10.164Z,15.54
2018-09-07T06:11:18.806Z,15.65
2018-09-07T06:12:27.467Z,15.54
2018-09-07T06:13:36.377Z,15.51
2018-09-07T06:14:45.027Z,15.48
2018-09-07T06:15:53.717Z,15.62
2018-09-07T06:17:02.660Z,15.62
2018-09-07T06:18:11.564Z,15.6
2018-09-07T06:19:20.487Z,15.48
2018-09-07T06:20:29.646Z,15.51
2018-09-07T06:21:38.300Z,15.51
2018-09-07T06:22:47.030Z,15.52
2018-09-07T06:23:55.592Z,15.55
2018-09-07T06:25:04.492Z,15.5
2018-09-07T06:26:13.141Z,15.47
2018-09-07T06:27:21.789Z,15.41
2018-09-07T06:28:30.436Z,15.39
2018-09-07T06:29:39.084Z,15.5
2018-09-07T06:30:47.715Z,15.52
2018-09-07T06:31:56.897Z,15.5
2018-09-07T06:33:05.588Z,15.59
2018-09-07T06:34:14.198Z,15.6
2018-09-07T06:35:22.838Z,15.59
2018-09-07T06:36:31.487Z,15.57
2018-09-07T06:37:40.129Z,15.47
2018-09-07T06:38:48.964Z,15.6
2018-09-07T06:39:57.418Z,15.54
2018-09-07T06:41:06.067Z,15.52
2018-09-07T06:42:14.709Z,15.6
2018-09-07T06:43:23.368Z,15.48
2018-09-07T06:44:32.280Z,15.57
2018-09-07T06:45:41.720Z,15.63
2018-09-07T06:46:50.446Z,15.65
2018-09-07T06:47:59.022Z,15.75
2018-09-07T06:49:07.916Z,15.84
2018-09-07T06:50:16.831Z,15.84
2018-09-07T06:51:25.472Z,15.94
2018-09-07T06:52:34.126Z,15.96
2018-09-07T06:53:42.761Z,15.96
2018-09-07T06:54:51.410Z,15.92
2018-09-07T06:56:00.108Z,15.94
2018-09-07T06:57:08.792Z,15.94
2018-09-07T06:58:17.429Z,16
2018-09-07T06:59:26.074Z,16.08
2018-09-07T07:00:34.979Z,16.05
2018-09-07T07:01:43.629Z,16.17
2018-09-07T07:02:52.967Z,16.16
2018-09-07T07:04:01.571Z,16.22
2018-09-07T07:05:10.213Z,16.13
2018-09-07T07:06:19.122Z,16.12
2018-09-07T07:07:27.778Z,16.28
2018-09-07T07:08:36.620Z,16.26
2018-09-07T07:09:45.067Z,16.26
2018-09-07T07:10:54.233Z,16.31
2018-09-07T07:12:02.890Z,16.32
2018-09-07T07:13:11.791Z,16.4
2018-09-07T07:14:20.441Z,16.44
2018-09-07T07:15:29.079Z,16.41
2018-09-07T07:16:37.735Z,16.46
2018-09-07T07:17:46.378Z,16.44
2018-09-07T07:18:55.025Z,16.41
2018-09-07T07:20:03.665Z,16.49
2018-09-07T07:21:12.310Z,16.55
2018-09-07T07:22:20.960Z,16.54
2018-09-07T07:23:29.608Z,16.55
2018-09-07T07:24:38.254Z,16.59
2018-09-07T07:25:46.891Z,16.64
2018-09-07T07:26:55.538Z,16.72
2018-09-07T07:28:04.184Z,16.66
2018-09-07T07:29:12.857Z,16.74
2018-09-07T07:30:21.845Z,16.73
2018-09-07T07:31:31.023Z,16.66
2018-09-07T07:32:39.663Z,16.76
2018-09-07T07:33:48.318Z,16.72
2018-09-07T07:34:56.956Z,16.69
2018-09-07T07:36:05.605Z,16.68
2018-09-07T07:37:14.352Z,16.73
2018-09-07T07:38:23.290Z,16.79
2018-09-07T07:39:31.932Z,16.74
2018-09-07T07:40:40.835Z,16.77
2018-09-07T07:41:49.477Z,16.69
2018-09-07T07:42:58.395Z,16.73
2018-09-07T07:44:07.052Z,16.77
2018-09-07T07:45:15.699Z,16.69
2018-09-07T07:46:24.347Z,16.83
2018-09-07T07:47:32.994Z,16.91
2018-09-07T07:48:41.636Z,16.89
2018-09-07T07:49:50.281Z,16.98
2018-09-07T07:50:58.926Z,17.02
2018-09-07T07:52:07.567Z,17.12
2018-09-07T07:53:16.217Z,17.01
2018-09-07T07:54:24.860Z,17.12
2018-09-07T07:55:33.509Z,17.13
2018-09-07T07:56:42.158Z,17.2
2018-09-07T07:57:50.801Z,17.19
2018-09-07T07:58:59.447Z,17.19
2018-09-07T08:00:08.097Z,17.22
2018-09-07T08:01:16.745Z,17.22
2018-09-07T08:02:25.386Z,17.16
2018-09-07T08:03:34.035Z,17.14
2018-09-07T08:04:42.687Z,17.13
2018-09-07T08:05:51.334Z,17.23
2018-09-07T08:06:59.974Z,17.2
2018-09-07T08:08:08.888Z,17.2
2018-09-07T08:09:17.534Z,17.2
2018-09-07T08:10:26.184Z,17.2
2018-09-07T08:11:35.158Z,17.27
2018-09-07T08:12:44.069Z,17.31
2018-09-07T08:13:52.726Z,17.23
2018-09-07T08:15:01.463Z,17.32
2018-09-07T08:16:10.709Z,17.31
2018-09-07T08:17:19.970Z,17.24
2018-09-07T08:18:29.357Z,17.28
2018-09-07T08:19:38.593Z,17.37
2018-09-07T08:20:47.285Z,17.39
2018-09-07T08:21:56.022Z,17.35
2018-09-07T08:23:04.670Z,17.32
2018-09-07T08:24:13.316Z,17.3
2018-09-07T08:25:21.972Z,17.37
2018-09-07T08:26:31.224Z,17.37
2018-09-07T08:27:39.809Z,17.39
2018-09-07T08:28:48.449Z,17.44
2018-09-07T08:29:57.648Z,17.44
2018-09-07T08:31:06.291Z,17.39
2018-09-07T08:32:15.259Z,17.41
2018-09-07T08:33:23.850Z,17.42
2018-09-07T08:34:32.504Z,17.44
2018-09-07T08:35:41.153Z,17.39
2018-09-07T08:36:49.802Z,17.52
2018-09-07T08:37:58.449Z,17.59
2018-09-07T08:39:07.357Z,17.57
2018-09-07T08:40:16.051Z,17.59
2018-09-07T08:41:24.646Z,17.6
2018-09-07T08:42:33.571Z,17.53
2018-09-07T08:43:42.220Z,17.54
2018-09-07T08:44:50.858Z,17.52
2018-09-07T08:45:59.509Z,17.47
2018-09-07T08:47:08.146Z,17.37
2018-09-07T08:48:16.802Z,17.37
2018-09-07T08:49:25.447Z,17.32
2018-09-07T08:50:34.099Z,17.37
2018-09-07T08:51:42.735Z,17.39
2018-09-07T08:52:51.384Z,17.46
2018-09-07T08:54:00.035Z,17.49
2018-09-07T08:55:08.789Z,17.5
2018-09-07T08:56:17.334Z,17.66
2018-09-07T08:57:25.972Z,17.71
2018-09-07T08:58:34.621Z,17.76
2018-09-07T08:59:43.272Z,17.72
2018-09-07T09:00:51.924Z,17.69
2018-09-07T09:02:00.564Z,17.71
2018-09-07T09:03:09.477Z,17.69
2018-09-07T09:04:18.384Z,17.63
2018-09-07T09:05:27.297Z,17.71
2018-09-07T09:06:35.942Z,17.65
2018-09-07T09:07:44.594Z,17.66
2018-09-07T09:08:53.238Z,17.57
2018-09-07T09:10:01.895Z,17.63
2018-09-07T09:11:10.540Z,17.5
2018-09-07T09:12:19.445Z,17.59
2018-09-07T09:13:28.089Z,17.53
2018-09-07T09:14:36.732Z,17.5
2018-09-07T09:15:45.386Z,17.42
2018-09-07T09:16:54.032Z,17.56
2018-09-07T09:18:02.682Z,17.46
2018-09-07T09:19:11.591Z,17.41
2018-09-07T09:20:20.508Z,17.38
2018-09-07T09:21:29.149Z,17.44
2018-09-07T09:22:37.800Z,17.34
2018-09-07T09:23:46.845Z,17.35
2018-09-07T09:24:55.356Z,17.23
2018-09-07T09:26:03.998Z,17.24
2018-09-07T09:27:12.646Z,17.19
2018-09-07T09:28:21.545Z,17.14
2018-09-07T09:29:30.194Z,17.14
2018-09-07T09:30:38.845Z,17.09
2018-09-07T09:31:47.498Z,17.02
2018-09-07T09:32:56.207Z,16.94
2018-09-07T09:34:04.784Z,16.97
2018-09-07T09:35:13.433Z,16.91
2018-09-07T09:36:22.461Z,16.89
2018-09-07T09:37:31.137Z,16.84
2018-09-07T09:38:40.038Z,16.77
2018-09-07T09:39:49.072Z,16.77
2018-09-07T09:40:57.852Z,16.77
2018-09-07T09:42:06.558Z,16.77
2018-09-07T09:43:15.197Z,16.69
2018-09-07T09:44:24.112Z,16.72
2018-09-07T09:45:32.756Z,16.62
2018-09-07T09:46:41.670Z,16.54
2018-09-07T09:47:50.313Z,16.5
2018-09-07T09:48:58.958Z,16.44
2018-09-07T09:50:07.865Z,16.43
2018-09-07T09:51:16.511Z,16.4
2018-09-07T09:52:25.433Z,16.41
2018-09-07T09:53:34.078Z,16.46
2018-09-07T09:54:42.729Z,16.47
2018-09-07T09:55:51.374Z,16.4
2018-09-07T09:57:00.089Z,16.41
2018-09-07T09:58:08.664Z,16.47
2018-09-07T09:59:17.696Z,16.54
2018-09-07T10:00:26.325Z,16.51
2018-09-07T10:01:35.004Z,16.65
2018-09-07T10:02:43.917Z,16.57
2018-09-07T10:03:52.565Z,16.69
2018-09-07T10:05:01.268Z,16.65
2018-09-07T10:06:09.914Z,16.65
2018-09-07T10:07:18.559Z,16.58
2018-09-07T10:08:27.263Z,16.5
2018-09-07T10:09:35.899Z,16.44
2018-09-07T10:10:44.660Z,16.34
2018-09-07T10:11:53.309Z,16.43
2018-09-07T10:13:01.955Z,16.4
2018-09-07T10:14:10.664Z,16.31
2018-09-07T10:15:19.360Z,16.4
2018-09-07T10:16:28.006Z,16.34
2018-09-07T10:17:36.919Z,16.4
2018-09-07T10:18:45.569Z,16.51
2018-09-07T10:19:54.211Z,16.65
2018-09-07T10:21:02.897Z,16.68
2018-09-07T10:22:11.498Z,16.66
2018-09-07T10:23:20.147Z,16.83
2018-09-07T10:24:28.791Z,16.92
2018-09-07T10:25:37.440Z,16.95
2018-09-07T10:26:46.338Z,16.99
2018-09-07T10:27:54.986Z,17.14
2018-09-07T10:29:03.630Z,17.2
2018-09-07T10:30:12.272Z,17.3
2018-09-07T10:31:20.918Z,17.37
2018-09-07T10:32:29.559Z,17.52
2018-09-07T10:33:38.474Z,17.65
2018-09-07T10:34:47.121Z,17.75
2018-09-07T10:35:55.766Z,17.86
2018-09-07T10:37:04.671Z,17.98
2018-09-07T10:38:13.323Z,17.98
2018-09-07T10:39:21.968Z,18.11
2018-09-07T10:40:30.615Z,18.15
2018-09-07T10:41:39.270Z,18.09
2018-09-07T10:42:47.913Z,18.11
2018-09-07T10:43:56.563Z,18
2018-09-07T10:45:05.216Z,18.02
2018-09-07T10:46:13.850Z,18.12
2018-09-07T10:47:22.500Z,18.19
2018-09-07T10:48:31.406Z,18.19
2018-09-07T10:49:40.053Z,18.18
2018-09-07T10:50:49.682Z,18.21
2018-09-07T10:51:58.331Z,18.18
2018-09-07T10:53:07.300Z,18.21
2018-09-07T10:54:16.264Z,18.11
2018-09-07T10:55:24.908Z,18
2018-09-07T10:56:33.561Z,17.98
2018-09-07T10:57:42.205Z,18.12
2018-09-07T10:58:51.126Z,18.08
2018-09-07T10:59:59.767Z,18.03
2018-09-07T11:01:08.697Z,17.97
2018-09-07T11:02:17.602Z,18
2018-09-07T11:03:26.252Z,17.87
2018-09-07T11:04:34.897Z,17.93
2018-09-07T11:05:43.544Z,18.06
2018-09-07T11:06:52.189Z,18.08
2018-09-07T11:08:00.838Z,18.08
2018-09-07T11:09:09.485Z,18.08
2018-09-07T11:10:18.126Z,18.02
2018-09-07T11:11:26.772Z,18.12
2018-09-07T11:12:35.424Z,18.08
2018-09-07T11:13:44.097Z,18.21
2018-09-07T11:14:52.717Z,18.16
2018-09-07T11:16:01.628Z,18.26
2018-09-07T11:17:10.276Z,18.37
2018-09-07T11:18:18.926Z,18.41
2018-09-07T11:19:27.846Z,18.58
2018-09-07T11:20:36.487Z,18.73
2018-09-07T11:21:45.136Z,18.96
2018-09-07T11:22:53.787Z,19.09
2018-09-07T11:24:02.974Z,19.08
2018-09-07T11:25:11.625Z,19.19
2018-09-07T11:26:20.533Z,19.27
2018-09-07T11:27:29.704Z,19.35
2018-09-07T11:28:38.356Z,19.44
2018-09-07T11:29:47.003Z,19.45
2018-09-07T11:30:55.910Z,19.45
2018-09-07T11:32:04.552Z,19.39
2018-09-07T11:33:13.206Z,19.53
2018-09-07T11:34:22.108Z,19.57
2018-09-07T11:35:30.834Z,19.62
2018-09-07T11:36:39.748Z,19.62
2018-09-07T11:37:48.398Z,19.71
2018-09-07T11:38:57.047Z,19.7
2018-09-07T11:40:05.697Z,19.75
2018-09-07T11:41:14.457Z,19.79
2018-09-07T11:42:22.983Z,19.7
2018-09-07T11:43:31.636Z,19.63
2018-09-07T11:44:40.278Z,19.6
2018-09-07T11:45:49.200Z,19.49
2018-09-07T11:46:57.844Z,19.48
2018-09-07T11:48:06.490Z,19.53
2018-09-07T11:49:15.178Z,19.49
2018-09-07T11:50:23.788Z,19.53
2018-09-07T11:51:32.425Z,19.57
2018-09-07T11:52:41.078Z,19.56
2018-09-07T11:53:49.720Z,19.48
2018-09-07T11:55:00.799Z,19.49
2018-09-07T11:56:09.708Z,19.62
2018-09-07T11:57:18.350Z,19.62
2018-09-07T11:58:27.503Z,19.57
2018-09-07T11:59:36.097Z,19.64
2018-09-07T12:00:44.749Z,19.62
2018-09-07T12:01:53.397Z,19.67
2018-09-07T12:03:02.047Z,19.67
2018-09-07T12:04:11.132Z,19.67
2018-09-07T12:05:19.699Z,19.62
2018-09-07T12:06:28.600Z,19.57
2018-09-07T12:07:37.250Z,19.39
2018-09-07T12:08:45.889Z,19.41
2018-09-07T12:09:54.548Z,19.38
2018-09-07T12:11:03.195Z,19.38
2018-09-07T12:12:11.894Z,19.53
2018-09-07T12:13:20.643Z,19.57
2018-09-07T12:14:29.131Z,19.82
2018-09-07T12:15:37.786Z,19.87
2018-09-07T12:16:46.434Z,19.9
2018-09-07T12:17:55.083Z,19.92
2018-09-07T12:19:03.731Z,20.03
2018-09-07T12:20:12.383Z,20.02
2018-09-07T12:21:21.026Z,20.19
2018-09-07T12:22:29.685Z,20.18
2018-09-07T12:23:38.335Z,20.02
2018-09-07T12:24:46.979Z,19.92
2018-09-07T12:25:55.622Z,19.77
2018-09-07T12:27:04.281Z,19.6
2018-09-07T12:28:12.986Z,19.44
2018-09-07T12:29:21.834Z,19.35
2018-09-07T12:30:31.018Z,19.29
2018-09-07T12:31:39.681Z,19.19
2018-09-07T12:32:48.590Z,19.17
2018-09-07T12:33:57.235Z,19.16
2018-09-07T12:35:05.883Z,19.17
2018-09-07T12:36:14.529Z,19.04
2018-09-07T12:37:23.180Z,18.98
2018-09-07T12:38:32.356Z,19.04
2018-09-07T12:39:41.003Z,18.97
2018-09-07T12:40:49.896Z,19.04
2018-09-07T12:41:58.722Z,19.12
2018-09-07T12:43:08.347Z,19.12
2018-09-07T12:44:17.261Z,19.07
2018-09-07T12:45:25.908Z,19.19
2018-09-07T12:46:34.559Z,19.17
2018-09-07T12:47:43.478Z,19.15
2018-09-07T12:48:52.392Z,19.16
2018-09-07T12:50:01.035Z,19.2
2018-09-07T12:51:09.687Z,19.2
2018-09-07T12:52:18.333Z,19.2
2018-09-07T12:53:26.984Z,19.29
2018-09-07T12:54:35.895Z,19.26
2018-09-07T12:55:44.798Z,19.24
2018-09-07T12:56:53.445Z,19.24
2018-09-07T12:58:02.092Z,19.27
2018-09-07T12:59:10.742Z,19.24
2018-09-07T13:00:19.381Z,19.2
2018-09-07T13:01:28.028Z,19.22
2018-09-07T13:02:36.678Z,19.26
2018-09-07T13:03:45.333Z,19.26
2018-09-07T13:04:53.989Z,19.27
2018-09-07T13:06:02.637Z,19.24
2018-09-07T13:07:11.282Z,19.34
2018-09-07T13:08:20.373Z,19.32
2018-09-07T13:09:29.376Z,19.35
2018-09-07T13:10:38.025Z,19.47
2018-09-07T13:11:46.930Z,19.48
2018-09-07T13:12:55.844Z,19.59
2018-09-07T13:14:04.499Z,19.66
2018-09-07T13:15:13.148Z,19.75
2018-09-07T13:16:21.796Z,19.77
2018-09-07T13:17:30.440Z,19.78
2018-09-07T13:18:39.092Z,19.72
2018-09-07T13:19:48.048Z,19.71
2018-09-07T13:20:56.653Z,19.62
2018-09-07T13:22:05.297Z,19.63
2018-09-07T13:23:14.212Z,19.57
2018-09-07T13:24:23.118Z,19.6
2018-09-07T13:25:32.303Z,19.63
2018-09-07T13:26:40.945Z,19.66
2018-09-07T13:27:49.601Z,19.82
2018-09-07T13:28:58.514Z,19.67
2018-09-07T13:30:07.161Z,19.71
2018-09-07T13:31:15.812Z,19.71
2018-09-07T13:32:24.455Z,19.64
2018-09-07T13:33:33.107Z,19.63
2018-09-07T13:34:41.755Z,19.6
2018-09-07T13:35:50.404Z,19.59
2018-09-07T13:36:59.047Z,19.53
2018-09-07T13:38:07.700Z,19.47
2018-09-07T13:39:16.604Z,19.39
2018-09-07T13:40:25.526Z,19.35
2018-09-07T13:41:34.161Z,19.34
2018-09-07T13:42:42.812Z,19.23
2018-09-07T13:43:51.743Z,19.24
2018-09-07T13:45:00.400Z,19.22
2018-09-07T13:46:09.573Z,19.04
2018-09-07T13:47:18.479Z,19.12
2018-09-07T13:48:27.559Z,19.04
2018-09-07T13:49:36.042Z,18.98
2018-09-07T13:50:44.700Z,19.08
2018-09-07T13:51:53.343Z,18.98
2018-09-07T13:53:02.000Z,19.09
2018-09-07T13:54:10.637Z,19.04
2018-09-07T13:55:19.295Z,19
2018-09-07T13:56:27.941Z,19.07
2018-09-07T13:57:36.854Z,19.12
2018-09-07T13:58:45.496Z,19.11
2018-09-07T13:59:54.156Z,19.15
2018-09-07T14:01:02.800Z,19.19
2018-09-07T14:02:11.719Z,19.29
2018-09-07T14:03:20.362Z,19.34
2018-09-07T14:04:29.027Z,19.35
2018-09-07T14:05:38.210Z,19.22
2018-09-07T14:06:46.860Z,19.19
2018-09-07T14:07:55.508Z,19.19
2018-09-07T14:09:04.411Z,19.12
2018-09-07T14:10:13.060Z,19.07
2018-09-07T14:11:21.707Z,18.98
2018-09-07T14:12:30.360Z,18.98
2018-09-07T14:13:38.998Z,19.07
2018-09-07T14:14:47.649Z,19.16
2018-09-07T14:15:56.648Z,19.19
2018-09-07T14:17:05.236Z,19.15
2018-09-07T14:18:13.875Z,19.2
2018-09-07T14:19:22.524Z,19.26
2018-09-07T14:20:31.169Z,19.3
2018-09-07T14:21:39.856Z,19.29
2018-09-07T14:22:48.785Z,19.35
2018-09-07T14:23:57.953Z,19.41
2018-09-07T14:25:06.599Z,19.41
2018-09-07T14:26:15.244Z,19.39
2018-09-07T14:27:24.165Z,19.44
2018-09-07T14:28:32.812Z,19.41
2018-09-07T14:29:41.463Z,19.45
2018-09-07T14:30:50.101Z,19.48
2018-09-07T14:31:58.756Z,19.38
2018-09-07T14:33:07.660Z,19.37
2018-09-07T14:34:16.310Z,19.44
2018-09-07T14:35:24.963Z,19.45
2018-09-07T14:36:33.604Z,19.42
2018-09-07T14:37:42.254Z,19.37
2018-09-07T14:38:50.904Z,19.37
2018-09-07T14:39:59.560Z,19.24
2018-09-07T14:41:08.473Z,19.23
2018-09-07T14:42:17.193Z,19.16
2018-09-07T14:43:25.762Z,19.22
2018-09-07T14:44:34.405Z,19.19
2018-09-07T14:45:43.328Z,19.17
2018-09-07T14:46:51.976Z,19.12
2018-09-07T14:48:00.627Z,19.22